Time;durP1;ratioP1;P1;durP2;ratioP2;P2;SDS_P1;SDS_P2;PMS_P1;PMS_P2;Temp;Humidity;BMP_temperature;BMP_pressure;BME280_temperature;BME280_humidity;BME280_pressure;Samples;Min_cycle;Max_cycle;Signal;HPM_P1;HPM_P2
2021/12/13 00:01:14;;;;;;;6.10;4.63;;;5.30;1.00;;;;;;5030851;28;20203;-75
2021/12/13 00:03:44;;;;;;;6.00;4.47;;;5.20;1.00;;;;;;5030960;28;20786;-75
2021/12/13 00:06:18;;;;;;;5.43;4.47;;;5.20;1.00;;;;;;5031484;28;20172;-75
2021/12/13 00:08:50;;;;;;;6.63;4.60;;;5.20;1.00;;;;;;5031482;28;20238;-75
2021/12/13 00:11:22;;;;;;;5.90;4.37;;;5.20;1.00;;;;;;5030835;28;20187;-75
2021/12/13 00:14:11;;;;;;;5.40;4.40;;;5.20;1.00;;;;;;5031785;28;20187;-76
2021/12/13 00:16:41;;;;;;;6.00;4.07;;;5.20;26.00;;;;;;5031373;28;20176;-75
2021/12/13 00:19:13;;;;;;;7.47;4.37;;;5.20;38.70;;;;;;5031385;28;20270;-75
2021/12/13 00:21:45;;;;;;;4.40;3.53;;;5.20;32.50;;;;;;5031491;28;20203;-75
2021/12/13 00:24:20;;;;;;;5.73;4.10;;;5.20;1.00;;;;;;5031621;28;20179;-76
2021/12/13 00:26:49;;;;;;;5.90;4.03;;;5.20;2.40;;;;;;5031528;28;20176;-75
2021/12/13 00:29:19;;;;;;;6.33;4.27;;;5.20;26.90;;;;;;5030862;28;20211;-75
2021/12/13 00:32:18;;;;;;;6.13;4.67;;;5.20;24.90;;;;;;5031143;28;20192;-76
2021/12/13 00:34:54;;;;;;;6.13;4.23;;;5.20;1.00;;;;;;5031311;28;20283;-76
2021/12/13 00:37:32;;;;;;;5.17;4.40;;;5.20;1.00;;;;;;5031258;28;20180;-76
2021/12/13 00:40:13;;;;;;;8.27;4.50;;;5.20;1.00;;;;;;5030700;28;20196;-76
2021/12/13 00:43:08;;;;;;;6.83;4.80;;;5.20;1.00;;;;;;5031040;28;20196;-75
2021/12/13 00:45:38;;;;;;;6.43;4.37;;;5.20;1.00;;;;;;5030925;28;20207;-76
2021/12/13 00:48:06;;;;;;;5.93;4.47;;;5.30;1.00;;;;;;5031210;28;20172;-75
2021/12/13 00:50:44;;;;;;;8.00;4.80;;;5.20;1.00;;;;;;5030341;28;20239;-76
2021/12/13 00:53:15;;;;;;;7.40;5.30;;;5.20;1.00;;;;;;5031025;28;20217;-76
2021/12/13 00:55:42;;;;;;;6.93;4.60;;;5.20;1.00;;;;;;5031217;28;20180;-76
2021/12/13 00:58:20;;;;;;;7.50;4.80;;;5.30;1.00;;;;;;5031311;28;20323;-76
2021/12/13 01:00:54;;;;;;;9.53;4.70;;;5.20;1.00;;;;;;5030592;28;20286;-76
2021/12/13 01:03:22;;;;;;;6.00;4.90;;;5.20;1.00;;;;;;5031112;28;20180;-76
2021/12/13 01:05:47;;;;;;;6.07;4.93;;;5.20;1.00;;;;;;5031029;28;20176;-76
2021/12/13 01:08:33;;;;;;;7.07;4.87;;;5.20;1.00;;;;;;5030980;28;20180;-76
2021/12/13 01:11:34;;;;;;;7.93;4.90;;;5.20;1.00;;;;;;5030205;28;20210;-76
2021/12/13 01:14:22;;;;;;;6.27;4.93;;;5.20;1.00;;;;;;5030789;28;20220;-76
2021/12/13 01:17:09;;;;;;;9.23;5.47;;;5.20;21.60;;;;;;5034344;28;20271;-76
2021/12/13 01:19:54;;;;;;;6.50;4.67;;;5.20;14.40;;;;;;5033899;28;20249;-76
2021/12/13 01:22:55;;;;;;;8.57;4.83;;;5.20;52.60;;;;;;5034332;28;20259;-76
2021/12/13 01:25:41;;;;;;;7.43;5.17;;;5.20;62.70;;;;;;5034340;28;20649;-75
2021/12/13 01:28:20;;;;;;;9.60;4.77;;;5.10;85.30;;;;;;5034112;28;20706;-76
2021/12/13 01:30:50;;;;;;;9.60;4.67;;;5.10;63.90;;;;;;5033542;28;20721;-75
2021/12/13 01:33:17;;;;;;;7.20;5.40;;;5.10;87.10;;;;;;5034418;28;20187;-76
2021/12/13 01:35:45;;;;;;;7.80;4.80;;;5.10;99.90;;;;;;5034041;28;20264;-76
2021/12/13 01:38:21;;;;;;;9.33;4.97;;;5.00;99.90;;;;;;5034067;28;20354;-75
2021/12/13 01:40:52;;;;;;;8.93;4.40;;;5.00;99.90;;;;;;5033159;28;20743;-75
2021/12/13 01:43:22;;;;;;;5.40;4.37;;;5.10;99.90;;;;;;5033794;28;20176;-76
2021/12/13 01:45:50;;;;;;;7.47;4.90;;;5.00;99.90;;;;;;5033739;28;20214;-75
2021/12/13 01:48:29;;;;;;;6.93;4.43;;;5.00;99.90;;;;;;5033798;28;20188;-75
2021/12/13 01:51:08;;;;;;;5.80;4.33;;;5.00;99.90;;;;;;5033187;28;20203;-75
2021/12/13 01:53:52;;;;;;;9.10;5.27;;;5.10;99.90;;;;;;5033645;28;20255;-76
2021/12/13 01:56:40;;;;;;;8.83;4.87;;;5.00;99.90;;;;;;5033550;28;20187;-76
2021/12/13 01:59:52;;;;;;;6.33;4.57;;;5.10;99.90;;;;;;5033520;28;20184;-75
2021/12/13 02:02:17;;;;;;;8.63;5.10;;;5.10;99.90;;;;;;5032678;28;20179;-75
2021/12/13 02:04:44;;;;;;;9.20;4.70;;;5.10;99.90;;;;;;5033520;28;20176;-76
2021/12/13 02:07:13;;;;;;;7.53;4.97;;;5.10;99.90;;;;;;5033477;28;20207;-75
2021/12/13 02:09:44;;;;;;;5.97;5.20;;;5.00;99.90;;;;;;5032882;28;20211;-75
2021/12/13 02:12:14;;;;;;;8.40;4.73;;;4.90;99.90;;;;;;5033166;28;20175;-75
2021/12/13 02:14:49;;;;;;;5.00;4.23;;;5.00;99.90;;;;;;5033544;28;20539;-75
2021/12/13 02:17:23;;;;;;;6.87;4.53;;;5.00;99.90;;;;;;5033282;28;20175;-75
2021/12/13 02:19:57;;;;;;;6.57;4.33;;;5.00;99.90;;;;;;5032629;28;20219;-75
2021/12/13 02:22:37;;;;;;;7.20;4.80;;;5.00;99.90;;;;;;5033178;28;20175;-75
2021/12/13 02:25:12;;;;;;;7.30;4.90;;;5.00;99.90;;;;;;5032910;28;20196;-75
2021/12/13 02:27:41;;;;;;;5.60;4.60;;;5.00;99.90;;;;;;5033239;28;20321;-75
2021/12/13 02:30:16;;;;;;;7.23;4.97;;;5.00;99.90;;;;;;5032417;28;20223;-75
2021/12/13 02:32:45;;;;;;;11.07;5.73;;;5.00;99.90;;;;;;5032805;28;20537;-75
2021/12/13 02:35:13;;;;;;;9.43;5.27;;;4.90;99.90;;;;;;5032754;28;20172;-76
2021/12/13 02:37:41;;;;;;;7.47;5.50;;;5.00;99.90;;;;;;5032957;28;20184;-75
2021/12/13 02:40:13;;;;;;;9.63;6.27;;;5.00;99.90;;;;;;5032348;28;20242;-76
2021/12/13 02:42:39;;;;;;;9.17;5.60;;;5.00;99.90;;;;;;5032580;28;20214;-76
2021/12/13 02:45:20;;;;;;;7.03;6.07;;;5.00;99.90;;;;;;5032544;28;20191;-75
2021/12/13 02:48:08;;;;;;;10.00;6.47;;;5.00;99.90;;;;;;5032623;28;20175;-76
2021/12/13 02:51:00;;;;;;;7.87;6.13;;;5.00;99.90;;;;;;5032193;28;20215;-76
2021/12/13 02:53:35;;;;;;;8.17;5.30;;;5.00;99.90;;;;;;5032749;28;20191;-76
2021/12/13 02:56:02;;;;;;;10.60;5.50;;;5.00;99.90;;;;;;5032342;28;20269;-76
2021/12/13 02:58:31;;;;;;;8.07;5.27;;;4.90;99.90;;;;;;5014597;28;20552;-76
2021/12/13 03:01:09;;;;;;;11.23;5.27;;;4.80;99.90;;;;;;5031916;28;20200;-76
2021/12/13 03:03:39;;;;;;;7.37;5.27;;;4.80;99.90;;;;;;5032542;28;20176;-75
2021/12/13 03:06:07;;;;;;;8.33;5.20;;;4.70;99.90;;;;;;5032217;28;20645;-76
2021/12/13 03:08:46;;;;;;;7.43;5.63;;;4.70;99.90;;;;;;5014421;28;20211;-75
2021/12/13 03:11:23;;;;;;;7.47;5.80;;;4.80;99.90;;;;;;5031651;28;20618;-76
2021/12/13 03:14:15;;;;;;;9.43;5.83;;;4.80;99.90;;;;;;5032382;28;20180;-76
2021/12/13 03:16:52;;;;;;;16.20;7.37;;;4.90;99.90;;;;;;5032207;28;20176;-75
2021/12/13 03:19:34;;;;;;;11.70;7.30;;;4.80;99.90;;;;;;5031821;28;20175;-75
2021/12/13 03:22:22;;;;;;;12.43;7.63;;;4.80;99.90;;;;;;5032140;28;20363;-76
2021/12/13 03:25:04;;;;;;;13.43;7.00;;;4.80;99.90;;;;;;5032068;28;20233;-76
2021/12/13 03:27:42;;;;;;;13.77;7.43;;;4.80;99.90;;;;;;5032213;28;20175;-76
2021/12/13 03:30:33;;;;;;;9.17;7.13;;;4.90;99.90;;;;;;5034266;28;20219;-76
2021/12/13 03:33:06;;;;;;;12.13;6.93;;;4.90;99.90;;;;;;5028921;28;20184;-76
2021/12/13 03:35:58;;;;;;;9.77;6.97;;;4.90;99.90;;;;;;5033908;28;20172;-75
2021/12/13 03:38:28;;;;;;;9.97;6.87;;;5.00;99.90;;;;;;5028837;28;20557;-75
2021/12/13 03:40:58;;;;;;;11.23;7.30;;;5.00;99.90;;;;;;5031488;28;20226;-75
2021/12/13 03:43:33;;;;;;;14.70;8.60;;;5.00;99.90;;;;;;5031777;28;20218;-75
2021/12/13 03:46:03;;;;;;;11.03;7.13;;;5.00;99.90;;;;;;5031434;28;20663;-75
2021/12/13 03:48:31;;;;;;;14.13;7.97;;;5.00;99.90;;;;;;5031829;28;20176;-76
2021/12/13 03:51:02;;;;;;;13.63;8.03;;;5.00;99.90;;;;;;5031211;28;20199;-76
2021/12/13 03:53:30;;;;;;;14.23;8.80;;;5.00;99.90;;;;;;5031661;28;20180;-76
2021/12/13 03:56:12;;;;;;;15.67;7.97;;;5.00;99.90;;;;;;5031416;28;20194;-75
2021/12/13 03:58:45;;;;;;;15.43;7.97;;;5.00;99.90;;;;;;5031354;28;20199;-75
2021/12/13 04:01:27;;;;;;;14.90;8.90;;;4.90;99.90;;;;;;5013032;28;20227;-75
2021/12/13 04:03:59;;;;;;;15.23;8.10;;;5.00;99.90;;;;;;5031374;28;20216;-75
2021/12/13 04:06:25;;;;;;;17.93;8.10;;;5.10;99.90;;;;;;5031412;28;20186;-75
2021/12/13 04:08:55;;;;;;;12.07;8.13;;;5.10;99.90;;;;;;5031225;28;20215;-75
2021/12/13 04:11:23;;;;;;;12.63;8.23;;;5.00;99.90;;;;;;5031417;28;20195;-75
2021/12/13 04:14:04;;;;;;;15.33;8.27;;;5.10;99.90;;;;;;5031421;28;20171;-76
2021/12/13 04:16:50;;;;;;;14.47;8.27;;;5.00;99.90;;;;;;5031301;28;20188;-75
2021/12/13 04:19:23;;;;;;;10.50;7.73;;;5.00;99.90;;;;;;5030690;28;20176;-75
2021/12/13 04:21:56;;;;;;;15.07;9.10;;;4.90;99.90;;;;;;5031708;28;20195;-75
2021/12/13 04:24:35;;;;;;;12.40;8.60;;;4.90;99.90;;;;;;5031582;28;20176;-75
2021/12/13 04:27:10;;;;;;;13.80;7.87;;;4.90;99.90;;;;;;5031823;28;20305;-75
2021/12/13 04:29:40;;;;;;;13.73;9.13;;;5.00;99.90;;;;;;5031197;28;20613;-75
2021/12/13 04:32:19;;;;;;;17.93;9.07;;;5.00;99.90;;;;;;5031546;28;20179;-75
2021/12/13 04:34:46;;;;;;;15.70;10.23;;;5.10;99.90;;;;;;5031316;28;20180;-75
2021/12/13 04:37:19;;;;;;;16.40;10.10;;;5.10;99.90;;;;;;5031238;28;20202;-75
2021/12/13 04:39:51;;;;;;;12.60;9.77;;;5.10;99.90;;;;;;5030668;28;20273;-75
2021/12/13 04:42:19;;;;;;;17.13;9.87;;;5.10;99.90;;;;;;5031006;28;20176;-75
2021/12/13 04:45:14;;;;;;;15.90;9.70;;;5.00;99.90;;;;;;5030992;28;20270;-75
2021/12/13 04:47:53;;;;;;;15.17;9.50;;;5.10;99.90;;;;;;5029757;28;20278;-74
2021/12/13 04:50:30;;;;;;;15.73;10.70;;;5.10;99.90;;;;;;5033884;28;20239;-75
2021/12/13 04:52:57;;;;;;;14.03;9.70;;;5.20;99.90;;;;;;5034776;28;20551;-75
2021/12/13 04:55:28;;;;;;;17.73;9.33;;;5.20;99.90;;;;;;5034730;28;20182;-75
2021/12/13 04:57:56;;;;;;;18.30;9.83;;;5.20;99.90;;;;;;5034629;28;20203;-75
2021/12/13 05:00:26;;;;;;;16.83;10.17;;;5.20;99.90;;;;;;5034151;28;20192;-74
2021/12/13 05:02:57;;;;;;;16.73;9.97;;;5.20;99.90;;;;;;5034705;28;20172;-75
2021/12/13 05:05:22;;;;;;;15.20;10.10;;;5.20;99.90;;;;;;5034530;28;20199;-76
2021/12/13 05:07:50;;;;;;;16.00;11.03;;;5.10;99.90;;;;;;5034695;28;20887;-76
2021/12/13 05:10:17;;;;;;;19.83;11.27;;;5.10;99.90;;;;;;5033796;28;20751;-75
2021/12/13 05:13:13;;;;;;;20.77;11.30;;;5.00;99.90;;;;;;5034250;28;20168;-75
2021/12/13 05:15:43;;;;;;;14.23;10.77;;;5.00;99.90;;;;;;5034183;28;20187;-75
2021/12/13 05:18:24;;;;;;;15.50;10.27;;;5.00;99.90;;;;;;5049770;28;20186;-75
2021/12/13 05:20:58;;;;;;;17.80;10.97;;;5.10;99.90;;;;;;5053466;28;20205;-75
2021/12/13 05:23:25;;;;;;;14.80;10.63;;;5.10;99.90;;;;;;5052427;28;20258;-75
2021/12/13 05:25:59;;;;;;;18.07;11.30;;;5.10;99.90;;;;;;5039227;28;20547;-75
2021/12/13 05:28:29;;;;;;;20.30;11.40;;;5.00;99.90;;;;;;5034286;28;20179;-75
2021/12/13 05:30:57;;;;;;;18.10;11.00;;;5.10;99.90;;;;;;5033715;28;20218;-76
2021/12/13 05:33:24;;;;;;;14.00;10.97;;;5.00;99.90;;;;;;5034147;28;20168;-75
2021/12/13 05:36:00;;;;;;;18.90;11.97;;;4.90;99.90;;;;;;5033829;28;20176;-76
2021/12/13 05:38:34;;;;;;;16.57;11.10;;;4.90;99.90;;;;;;5033909;28;20175;-75
2021/12/13 05:41:06;;;;;;;17.50;12.00;;;4.90;99.90;;;;;;5033311;28;20684;-76
2021/12/13 05:43:48;;;;;;;17.60;11.47;;;4.80;99.90;;;;;;5033812;28;20172;-75
2021/12/13 05:46:17;;;;;;;17.17;11.77;;;4.90;99.90;;;;;;5033960;28;20182;-75
2021/12/13 05:48:56;;;;;;;17.27;12.17;;;5.10;99.90;;;;;;5035015;28;20231;-76
2021/12/13 05:51:39;;;;;;;18.00;12.07;;;4.90;99.90;;;;;;5032846;28;20290;-76
2021/12/13 05:54:20;;;;;;;17.23;12.47;;;4.80;99.90;;;;;;5032694;28;20191;-75
2021/12/13 05:57:00;;;;;;;18.67;11.60;;;4.80;99.90;;;;;;5033300;28;20187;-76
2021/12/13 05:59:29;;;;;;;16.70;12.50;;;4.90;99.90;;;;;;5032951;28;20176;-76
2021/12/13 06:02:11;;;;;;;19.60;11.87;;;4.90;99.90;;;;;;5047480;28;20569;-76
2021/12/13 06:04:58;;;;;;;17.87;11.83;;;4.90;99.90;;;;;;5053666;28;20236;-76
2021/12/13 06:07:31;;;;;;;18.50;12.47;;;4.80;99.90;;;;;;5053404;28;20187;-76
2021/12/13 06:10:15;;;;;;;22.70;13.20;;;4.80;99.90;;;;;;5052407;28;20243;-76
2021/12/13 06:12:54;;;;;;;17.27;12.63;;;4.80;99.90;;;;;;5052942;28;20192;-76
2021/12/13 06:15:27;;;;;;;16.57;12.53;;;4.90;99.90;;;;;;5053273;28;20182;-75
2021/12/13 06:18:11;;;;;;;23.23;13.10;;;4.90;99.90;;;;;;5053026;28;20199;-76
2021/12/13 06:20:43;;;;;;;20.20;14.23;;;4.90;99.90;;;;;;5052717;28;20195;-76
2021/12/13 06:23:24;;;;;;;19.23;13.90;;;5.00;99.90;;;;;;5053088;28;20175;-75
2021/12/13 06:25:57;;;;;;;20.77;14.50;;;4.90;99.90;;;;;;5053124;28;20171;-76
2021/12/13 06:28:30;;;;;;;24.70;18.27;;;4.90;99.90;;;;;;5052890;28;20171;-75
2021/12/13 06:31:02;;;;;;;23.97;16.40;;;5.00;99.90;;;;;;5052988;28;20199;-76
2021/12/13 06:33:29;;;;;;;21.60;15.63;;;5.00;99.90;;;;;;5053092;28;20179;-76
2021/12/13 06:35:58;;;;;;;22.07;15.30;;;5.00;99.90;;;;;;5052855;28;20190;-76
2021/12/13 06:38:32;;;;;;;23.70;15.70;;;5.00;99.90;;;;;;5052770;28;20230;-76
2021/12/13 06:41:09;;;;;;;24.27;16.83;;;5.10;99.90;;;;;;5051982;28;20244;-75
2021/12/13 06:43:56;;;;;;;22.70;14.93;;;5.00;99.90;;;;;;5052830;28;20178;-76
2021/12/13 06:46:24;;;;;;;26.30;16.63;;;5.10;99.90;;;;;;5052987;28;20189;-75
2021/12/13 06:49:13;;;;;;;25.47;15.83;;;5.10;99.90;;;;;;5052605;28;20199;-76
2021/12/13 06:51:48;;;;;;;26.77;16.33;;;5.10;99.90;;;;;;5052607;28;20214;-75
2021/12/13 06:54:25;;;;;;;28.77;17.40;;;5.10;99.90;;;;;;5052562;28;20636;-74
2021/12/13 06:56:59;;;;;;;25.90;16.50;;;5.20;99.90;;;;;;5051939;28;20178;-73
2021/12/13 06:59:27;;;;;;;24.27;16.87;;;5.20;99.90;;;;;;5033781;28;20228;-77
2021/12/13 07:02:16;;;;;;;23.60;15.90;;;5.20;99.90;;;;;;5052435;28;20258;-75
2021/12/13 07:04:51;;;;;;;22.17;15.83;;;5.20;99.90;;;;;;5052491;28;20179;-76
2021/12/13 07:07:18;;;;;;;20.63;14.80;;;5.30;99.90;;;;;;5052149;28;20557;-76
2021/12/13 07:09:56;;;;;;;23.47;15.97;;;5.40;99.90;;;;;;5051538;28;20219;-75
2021/12/13 07:12:24;;;;;;;24.93;15.53;;;5.30;99.90;;;;;;5051296;28;20178;-75
2021/12/13 07:14:50;;;;;;;21.33;14.30;;;5.40;99.90;;;;;;5052234;28;20210;-76
2021/12/13 07:17:29;;;;;;;20.60;14.30;;;5.40;99.90;;;;;;5051949;28;20206;-76
2021/12/13 07:19:55;;;;;;;24.73;15.40;;;5.40;99.90;;;;;;5051797;28;20325;-76
2021/12/13 07:22:24;;;;;;;19.73;13.90;;;5.30;99.90;;;;;;5051934;28;20297;-75
2021/12/13 07:25:05;;;;;;;23.93;15.43;;;5.30;99.90;;;;;;5051646;28;20232;-75
2021/12/13 07:27:34;;;;;;;24.70;14.40;;;5.10;99.90;;;;;;5055620;28;20190;-77
2021/12/13 07:30:10;;;;;;;25.27;15.37;;;5.00;99.90;;;;;;5052911;28;20218;-75
2021/12/13 07:32:41;;;;;;;24.00;15.10;;;5.00;99.90;;;;;;5051707;28;20285;-75
2021/12/13 07:35:13;;;;;;;22.50;14.93;;;5.10;99.90;;;;;;5053532;28;20245;-75
2021/12/13 07:37:54;;;;;;;22.30;14.20;;;5.10;99.90;;;;;;5051872;28;20176;-76
2021/12/13 07:40:34;;;;;;;24.93;14.30;;;5.00;99.90;;;;;;5053640;28;20195;-76
2021/12/13 07:43:10;;;;;;;25.80;14.40;;;5.20;99.90;;;;;;5056561;28;20182;-75
2021/12/13 07:46:00;;;;;;;26.83;15.43;;;5.20;99.90;;;;;;5053960;28;20591;-76
2021/12/13 07:48:50;;;;;;;25.37;14.17;;;5.20;99.90;;;;;;5051638;28;20186;-76
2021/12/13 07:51:15;;;;;;;26.03;15.13;;;5.30;99.90;;;;;;5050924;28;20277;-76
2021/12/13 07:53:59;;;;;;;26.13;15.23;;;5.10;99.90;;;;;;5051398;28;20214;-76
2021/12/13 07:56:36;;;;;;;25.47;14.77;;;5.10;99.90;;;;;;5051586;28;20167;-76
2021/12/13 07:59:18;;;;;;;24.47;14.93;;;5.20;99.90;;;;;;5051501;28;20189;-76
2021/12/13 08:01:57;;;;;;;25.70;15.50;;;5.20;99.90;;;;;;5051673;28;20538;-76
2021/12/13 08:04:38;;;;;;;28.27;15.97;;;5.30;99.90;;;;;;5051117;28;20585;-76
2021/12/13 08:07:20;;;;;;;24.87;15.00;;;5.30;99.90;;;;;;5051667;28;20203;-75
2021/12/13 08:09:52;;;;;;;25.63;15.93;;;5.40;99.90;;;;;;5050841;28;20218;-76
2021/12/13 08:12:25;;;;;;;29.03;16.03;;;5.30;99.90;;;;;;5051037;28;20205;-76
2021/12/13 08:15:11;;;;;;;27.37;15.67;;;5.30;99.90;;;;;;5051324;28;20231;-76
2021/12/13 08:18:05;;;;;;;27.53;16.60;;;5.20;99.90;;;;;;5051452;28;20185;-76
2021/12/13 08:20:47;;;;;;;25.70;15.97;;;5.20;99.90;;;;;;5050940;28;20226;-77
2021/12/13 08:23:24;;;;;;;31.10;16.63;;;5.40;99.90;;;;;;5051614;28;20257;-77
2021/12/13 08:25:53;;;;;;;25.00;16.20;;;5.50;99.90;;;;;;5055525;28;20186;-77
2021/12/13 08:28:29;;;;;;;27.40;15.77;;;5.50;99.90;;;;;;5055591;28;20301;-77
2021/12/13 08:30:57;;;;;;;26.10;15.17;;;5.50;99.90;;;;;;5055042;28;20218;-77
2021/12/13 08:33:34;;;;;;;26.73;15.90;;;5.60;99.90;;;;;;5055208;28;20492;-77
2021/12/13 08:36:09;;;;;;;29.33;15.90;;;5.50;99.90;;;;;;5055495;28;20175;-77
2021/12/13 08:38:49;;;;;;;27.50;17.30;;;5.60;99.90;;;;;;5055089;28;20174;-77
2021/12/13 08:41:14;;;;;;;27.50;15.80;;;5.70;99.90;;;;;;5054705;28;20186;-77
2021/12/13 08:43:48;;;;;;;30.97;15.90;;;5.70;99.90;;;;;;5054947;28;20175;-77
2021/12/13 08:46:33;;;;;;;28.73;16.73;;;5.70;99.90;;;;;;5054955;28;20274;-77
2021/12/13 08:49:00;;;;;;;28.93;15.63;;;5.70;99.90;;;;;;5054852;28;20211;-76
2021/12/13 08:51:29;;;;;;;24.07;16.13;;;5.70;99.90;;;;;;5054369;28;20269;-76
2021/12/13 08:54:09;;;;;;;26.00;15.53;;;5.60;99.90;;;;;;5055280;28;20191;-76
2021/12/13 08:56:43;;;;;;;25.30;16.10;;;5.80;99.90;;;;;;5056040;28;20179;-77
2021/12/13 08:59:23;;;;;;;28.73;15.73;;;5.80;99.90;;;;;;5059595;28;20182;-75
2021/12/13 09:01:57;;;;;;;28.90;16.50;;;5.90;99.90;;;;;;5054913;28;20202;-75
2021/12/13 09:04:27;;;;;;;27.27;15.47;;;5.80;99.90;;;;;;5054709;28;20179;-75
2021/12/13 09:07:01;;;;;;;24.77;15.73;;;5.80;99.90;;;;;;5054533;28;20396;-75
2021/12/13 09:09:27;;;;;;;27.30;15.60;;;5.80;99.90;;;;;;5053872;28;20306;-75
2021/12/13 09:11:59;;;;;;;22.97;15.67;;;5.80;99.90;;;;;;5054647;28;20564;-75
2021/12/13 09:14:27;;;;;;;23.63;14.93;;;5.80;99.90;;;;;;5054472;28;20225;-77
2021/12/13 09:17:07;;;;;;;26.47;16.13;;;5.80;99.90;;;;;;5054275;28;20175;-76
2021/12/13 09:19:48;;;;;;;23.47;15.30;;;5.90;99.90;;;;;;5053687;28;20238;-77
2021/12/13 09:22:37;;;;;;;26.90;16.90;;;5.90;99.90;;;;;;5054360;28;20175;-75
2021/12/13 09:25:25;;;;;;;23.77;16.37;;;6.00;99.90;;;;;;5054179;28;20228;-75
2021/12/13 09:27:53;;;;;;;25.27;16.47;;;6.10;99.90;;;;;;5054428;28;20224;-75
2021/12/13 09:30:24;;;;;;;25.27;16.93;;;6.20;99.90;;;;;;5053545;28;20227;-75
2021/12/13 09:32:58;;;;;;;24.33;16.20;;;6.30;99.90;;;;;;5054013;28;20178;-75
2021/12/13 09:35:39;;;;;;;30.40;16.70;;;6.30;99.90;;;;;;5053084;28;20179;-75
2021/12/13 09:38:19;;;;;;;24.97;15.53;;;6.40;99.90;;;;;;5054605;28;20182;-76
2021/12/13 09:41:02;;;;;;;26.37;15.67;;;6.50;99.90;;;;;;5053617;28;20191;-76
2021/12/13 09:43:46;;;;;;;23.90;15.03;;;6.50;99.90;;;;;;5053798;28;20176;-76
2021/12/13 09:46:17;;;;;;;24.13;16.37;;;6.50;99.90;;;;;;5053816;28;20754;-76
2021/12/13 09:48:48;;;;;;;25.07;15.33;;;6.70;99.90;;;;;;5053431;28;20171;-76
2021/12/13 09:51:24;;;;;;;20.73;15.03;;;6.80;99.90;;;;;;5053335;28;20188;-76
2021/12/13 09:53:54;;;;;;;19.90;14.03;;;6.70;99.90;;;;;;5053560;28;20187;-76
2021/12/13 09:56:23;;;;;;;24.20;15.20;;;6.70;99.90;;;;;;5035763;28;20540;-76
2021/12/13 09:58:57;;;;;;;24.63;15.30;;;6.80;99.90;;;;;;5053196;28;20206;-76
2021/12/13 10:01:27;;;;;;;25.70;15.93;;;6.80;99.90;;;;;;5053157;28;20218;-76
2021/12/13 10:03:56;;;;;;;22.60;14.03;;;6.90;99.90;;;;;;5053223;28;20253;-76
2021/12/13 10:06:27;;;;;;;24.37;15.47;;;7.00;99.90;;;;;;5053565;28;20182;-75
2021/12/13 10:09:16;;;;;;;19.30;13.90;;;6.90;99.90;;;;;;5053201;28;20302;-75
2021/12/13 10:11:46;;;;;;;22.23;13.80;;;7.10;99.90;;;;;;5036101;28;20651;-78
2021/12/13 10:14:13;;;;;;;21.70;13.33;;;7.20;99.90;;;;;;5053824;28;20175;-75
2021/12/13 10:16:41;;;;;;;22.80;13.77;;;7.20;99.90;;;;;;5053628;28;20175;-75
2021/12/13 10:19:11;;;;;;;19.60;13.57;;;7.30;99.90;;;;;;5052956;28;20172;-76
2021/12/13 10:21:40;;;;;;;20.63;14.27;;;7.20;99.90;;;;;;5052956;28;20281;-76
2021/12/13 10:24:11;;;;;;;19.47;14.03;;;7.30;99.90;;;;;;5053011;28;20258;-76
2021/12/13 10:26:40;;;;;;;19.80;13.40;;;7.10;99.90;;;;;;5053320;28;20186;-76
2021/12/13 10:29:09;;;;;;;22.13;14.03;;;7.20;99.90;;;;;;5054471;28;20203;-76
2021/12/13 10:31:53;;;;;;;19.83;13.77;;;7.30;99.90;;;;;;5052873;28;20788;-75
2021/12/13 10:34:25;;;;;;;17.07;12.90;;;7.10;99.90;;;;;;5052850;28;20210;-76
2021/12/13 10:37:07;;;;;;;17.53;13.63;;;7.10;99.90;;;;;;5053076;28;20171;-75
2021/12/13 10:39:37;;;;;;;17.93;13.80;;;7.10;99.90;;;;;;5052402;28;20194;-76
2021/12/13 10:42:08;;;;;;;20.20;13.63;;;7.20;99.90;;;;;;5052730;28;20174;-76
2021/12/13 10:44:35;;;;;;;21.30;13.70;;;7.20;99.90;;;;;;5052582;28;20282;-76
2021/12/13 10:47:08;;;;;;;18.00;12.67;;;7.30;99.90;;;;;;5052247;28;20172;-76
2021/12/13 10:49:41;;;;;;;19.20;13.00;;;7.20;99.90;;;;;;5052065;28;20246;-76
2021/12/13 10:52:13;;;;;;;17.50;12.23;;;7.30;99.90;;;;;;5052603;28;20230;-76
2021/12/13 10:54:46;;;;;;;18.33;12.03;;;7.00;99.90;;;;;;5052590;28;20237;-75
2021/12/13 10:57:31;;;;;;;18.47;12.43;;;7.10;99.90;;;;;;5052417;28;20183;-76
2021/12/13 10:59:59;;;;;;;15.80;11.60;;;7.30;99.90;;;;;;5052262;28;20195;-76
2021/12/13 11:02:31;;;;;;;18.10;12.03;;;7.30;99.90;;;;;;5052575;28;20182;-76
2021/12/13 11:05:09;;;;;;;16.93;12.70;;;7.30;99.90;;;;;;5052775;28;20651;-76
2021/12/13 11:07:35;;;;;;;17.83;12.10;;;7.50;99.90;;;;;;5052270;28;20604;-76
2021/12/13 11:10:05;;;;;;;19.57;12.50;;;7.50;99.90;;;;;;5051395;28;20242;-76
2021/12/13 11:12:36;;;;;;;19.70;13.20;;;7.30;99.90;;;;;;5051676;28;20660;-75
2021/12/13 11:15:08;;;;;;;18.93;13.63;;;7.30;99.90;;;;;;5034134;28;20182;-76
2021/12/13 11:17:35;;;;;;;19.20;14.00;;;7.20;99.90;;;;;;5052222;28;20225;-77
2021/12/13 11:20:25;;;;;;;22.27;12.93;;;7.30;99.90;;;;;;5051170;28;20686;-76
2021/12/13 11:22:50;;;;;;;19.13;12.53;;;7.50;99.90;;;;;;5052129;28;20254;-76
2021/12/13 11:25:24;;;;;;;18.03;12.40;;;7.50;99.90;;;;;;5051950;28;20262;-76
2021/12/13 11:27:50;;;;;;;14.13;10.60;;;7.50;99.90;;;;;;5053835;28;20181;-76
2021/12/13 11:30:21;;;;;;;17.70;11.10;;;7.40;99.90;;;;;;5054333;28;20294;-77
2021/12/13 11:32:58;;;;;;;19.50;13.20;;;7.30;99.90;;;;;;5057766;28;20632;-76
2021/12/13 11:36:02;;;;;;;19.77;12.57;;;7.40;99.90;;;;;;5056055;28;20230;-75
2021/12/13 11:39:02;;;;;;;16.97;11.40;;;7.50;99.90;;;;;;5051772;28;20179;-75
2021/12/13 11:42:04;;;;;;;17.10;11.40;;;7.70;99.90;;;;;;5051146;28;20652;-75
2021/12/13 11:44:55;;;;;;;16.47;11.60;;;7.80;99.90;;;;;;5051699;28;20581;-76
2021/12/13 11:47:40;;;;;;;15.90;11.33;;;7.70;99.90;;;;;;5051447;28;20174;-76
2021/12/13 11:50:35;;;;;;;16.87;10.93;;;7.70;99.90;;;;;;5052485;28;20215;-77
2021/12/13 11:53:26;;;;;;;16.30;10.83;;;7.70;99.90;;;;;;5055659;28;20179;-76
2021/12/13 11:56:32;;;;;;;15.40;10.87;;;7.70;99.90;;;;;;5053602;28;20251;-77
2021/12/13 11:59:21;;;;;;;19.23;12.77;;;7.90;99.90;;;;;;5051110;28;20175;-77
2021/12/13 12:02:03;;;;;;;16.40;10.37;;;7.90;99.90;;;;;;5051324;28;20187;-77
2021/12/13 12:04:47;;;;;;;19.70;12.33;;;8.10;99.90;;;;;;5051292;28;20564;-77
2021/12/13 12:07:13;;;;;;;15.90;11.33;;;8.00;99.90;;;;;;5051350;28;20178;-77
2021/12/13 12:09:55;;;;;;;17.63;12.33;;;8.00;99.90;;;;;;5050681;28;20211;-77
2021/12/13 12:13:04;;;;;;;15.77;10.90;;;8.20;99.90;;;;;;5051393;28;20199;-77
2021/12/13 12:15:31;;;;;;;19.37;11.97;;;8.10;99.90;;;;;;5051433;28;20183;-77
2021/12/13 12:18:09;;;;;;;15.37;11.60;;;8.40;99.90;;;;;;5051135;28;20696;-77
2021/12/13 12:20:43;;;;;;;15.33;11.10;;;8.30;99.90;;;;;;5050801;28;20622;-77
2021/12/13 12:23:22;;;;;;;15.47;11.47;;;8.20;99.90;;;;;;5049398;28;20278;-78
2021/12/13 12:25:48;;;;;;;13.90;10.57;;;8.40;99.90;;;;;;5047522;28;20273;-77
2021/12/13 12:28:17;;;;;;;13.33;10.60;;;8.50;99.90;;;;;;5036275;28;20267;-76
2021/12/13 12:30:46;;;;;;;14.50;10.43;;;8.70;99.90;;;;;;5031025;28;20344;-76
2021/12/13 12:33:23;;;;;;;19.73;12.90;;;8.60;99.90;;;;;;5031211;28;20527;-76
2021/12/13 12:35:49;;;;;;;14.67;11.43;;;8.50;99.90;;;;;;5031386;28;20178;-76
2021/12/13 12:38:27;;;;;;;15.37;12.20;;;8.10;99.90;;;;;;5031605;28;20187;-76
2021/12/13 12:41:11;;;;;;;29.73;18.20;;;8.00;99.90;;;;;;5030723;28;20215;-77
2021/12/13 12:43:51;;;;;;;17.80;12.93;;;8.20;99.90;;;;;;5030842;28;20215;-77
2021/12/13 12:46:16;;;;;;;20.90;13.70;;;8.10;99.90;;;;;;5031203;28;20185;-77
2021/12/13 12:49:01;;;;;;;15.47;11.93;;;8.20;99.90;;;;;;5033510;28;20233;-77
2021/12/13 12:51:30;;;;;;;16.47;11.57;;;8.10;99.90;;;;;;5033939;28;20208;-76
2021/12/13 12:54:02;;;;;;;14.87;10.87;;;8.10;99.90;;;;;;5031022;28;20179;-77
2021/12/13 12:56:43;;;;;;;15.40;10.57;;;8.20;99.90;;;;;;5031300;28;20496;-76
2021/12/13 12:59:17;;;;;;;21.40;13.37;;;8.20;99.90;;;;;;5030726;28;20174;-76
2021/12/13 13:01:55;;;;;;;27.87;16.57;;;8.30;99.90;;;;;;5038212;28;20194;-77
2021/12/13 13:04:25;;;;;;;17.87;11.60;;;8.90;99.90;;;;;;5045282;28;20216;-76
2021/12/13 13:06:54;;;;;;;15.00;11.67;;;9.10;99.90;;;;;;5036248;28;20514;-75
2021/12/13 13:09:21;;;;;;;31.00;17.43;;;9.00;48.20;;;;;;5031395;28;20207;-76
2021/12/13 13:11:49;;;;;;;17.00;10.37;;;9.20;78.80;;;;;;5034592;28;20326;-76
2021/12/13 13:14:30;;;;;;;24.17;14.13;;;8.90;9.80;;;;;;5034488;28;20226;-75
2021/12/13 13:17:07;;;;;;;21.57;11.50;;;9.00;1.00;;;;;;5034144;28;20187;-76
2021/12/13 13:19:39;;;;;;;12.00;9.70;;;8.80;1.00;;;;;;5045783;28;20182;-75
2021/12/13 13:22:11;;;;;;;13.83;9.73;;;8.80;10.10;;;;;;5055903;28;20205;-74
2021/12/13 13:24:46;;;;;;;16.10;10.77;;;8.50;99.90;;;;;;5054471;28;20182;-75
2021/12/13 13:27:13;;;;;;;15.60;10.60;;;8.50;99.90;;;;;;5053985;28;20189;-75